createdAt,value
2017-07-15T00:00:34.961Z,0
2017-07-15T00:01:35.578Z,0
2017-07-15T00:02:36.194Z,0
2017-07-15T00:03:36.814Z,0
2017-07-15T00:04:37.432Z,0
2017-07-15T00:05:38.094Z,0
2017-07-15T00:06:38.710Z,0
2017-07-15T00:07:39.350Z,0
2017-07-15T00:08:39.960Z,0
2017-07-15T00:09:40.570Z,0
2017-07-15T00:10:41.236Z,0
2017-07-15T00:11:41.854Z,0
2017-07-15T00:12:42.467Z,0
2017-07-15T00:13:43.082Z,0
2017-07-15T00:14:43.722Z,0
2017-07-15T00:15:44.377Z,0
2017-07-15T00:16:44.988Z,0
2017-07-15T00:17:45.603Z,0
2017-07-15T00:18:46.241Z,0
2017-07-15T00:19:46.845Z,0
2017-07-15T00:20:47.511Z,0
2017-07-15T00:21:48.164Z,0
2017-07-15T00:22:48.777Z,0
2017-07-15T00:23:49.395Z,0
2017-07-15T00:24:50.009Z,0
2017-07-15T00:25:50.673Z,0
2017-07-15T00:26:51.289Z,0
2017-07-15T00:27:51.931Z,0
2017-07-15T00:28:52.558Z,0
2017-07-15T00:29:53.149Z,0
2017-07-15T00:30:53.820Z,0
2017-07-15T00:31:54.433Z,0
2017-07-15T00:32:55.051Z,0
2017-07-15T00:33:55.665Z,0
2017-07-15T00:34:56.281Z,0
2017-07-15T00:35:56.951Z,0
2017-07-15T00:36:57.565Z,0
2017-07-15T00:37:58.181Z,0
2017-07-15T00:38:58.801Z,0
2017-07-15T00:39:59.413Z,0
2017-07-15T00:41:00.138Z,0
2017-07-15T00:42:00.744Z,0
2017-07-15T00:43:01.356Z,0
2017-07-15T00:44:01.972Z,0
2017-07-15T00:45:02.586Z,0
2017-07-15T00:46:03.251Z,0
2017-07-15T00:47:03.900Z,0
2017-07-15T00:48:04.517Z,0
2017-07-15T00:49:05.132Z,0
2017-07-15T00:50:05.747Z,0
2017-07-15T00:51:06.412Z,0
2017-07-15T00:52:07.026Z,0
2017-07-15T00:53:07.644Z,0
2017-07-15T00:54:08.261Z,0
2017-07-15T00:55:08.877Z,0
2017-07-15T00:56:09.542Z,0
2017-07-15T00:57:10.158Z,0
2017-07-15T00:58:10.774Z,0
2017-07-15T00:59:11.388Z,0
2017-07-15T01:00:12.009Z,0
2017-07-15T01:01:12.670Z,0
2017-07-15T01:02:13.290Z,0
2017-07-15T01:03:13.904Z,0
2017-07-15T01:04:14.518Z,0
2017-07-15T01:05:15.133Z,0
2017-07-15T01:06:15.798Z,0
2017-07-15T01:07:16.412Z,0
2017-07-15T01:08:17.029Z,0
2017-07-15T01:09:17.644Z,0
2017-07-15T01:10:18.269Z,0
2017-07-15T01:11:18.929Z,0
2017-07-15T01:12:19.546Z,0
2017-07-15T01:13:20.161Z,0
2017-07-15T01:14:20.775Z,0
2017-07-15T01:15:21.390Z,0
2017-07-15T01:16:22.072Z,0
2017-07-15T01:17:22.684Z,0
2017-07-15T01:18:23.332Z,0
2017-07-15T01:19:23.946Z,0
2017-07-15T01:20:24.621Z,0
2017-07-15T01:21:25.273Z,0
2017-07-15T01:22:25.892Z,0
2017-07-15T01:23:26.528Z,0
2017-07-15T01:24:27.130Z,0
2017-07-15T01:25:27.745Z,0
2017-07-15T01:26:28.413Z,0
2017-07-15T01:27:29.027Z,0
2017-07-15T01:28:29.668Z,0
2017-07-15T01:29:30.269Z,0
2017-07-15T01:30:30.916Z,0
2017-07-15T01:31:31.613Z,0
2017-07-15T01:32:32.231Z,0
2017-07-15T01:33:32.846Z,0
2017-07-15T01:34:33.495Z,0
2017-07-15T01:35:34.145Z,0
2017-07-15T01:36:34.813Z,0
2017-07-15T01:37:35.424Z,0
2017-07-15T01:38:36.037Z,0
2017-07-15T01:39:36.652Z,0
2017-07-15T01:40:37.273Z,0
2017-07-15T01:41:37.935Z,0
2017-07-15T01:42:38.555Z,0
2017-07-15T01:43:39.167Z,0
2017-07-15T01:44:39.782Z,0
2017-07-15T01:45:40.398Z,0
2017-07-15T01:46:41.103Z,0
2017-07-15T01:47:41.715Z,0
2017-07-15T01:48:42.334Z,0
2017-07-15T01:49:42.971Z,0
2017-07-15T01:50:43.575Z,0
2017-07-15T01:51:44.237Z,0
2017-07-15T01:52:44.851Z,0
2017-07-15T01:53:45.465Z,0
2017-07-15T01:54:46.114Z,0
2017-07-15T01:55:46.713Z,0
2017-07-15T01:56:47.377Z,0
2017-07-15T01:57:47.994Z,0
2017-07-15T01:58:48.609Z,0
2017-07-15T01:59:49.251Z,0
2017-07-15T02:00:49.855Z,0
2017-07-15T02:01:50.547Z,0
2017-07-15T02:02:51.146Z,0
2017-07-15T02:03:51.774Z,0
2017-07-15T02:04:52.384Z,0
2017-07-15T02:05:52.994Z,0
2017-07-15T02:06:53.662Z,0
2017-07-15T02:07:54.283Z,0
2017-07-15T02:08:54.893Z,0
2017-07-15T02:09:55.547Z,0
2017-07-15T02:10:56.160Z,0
2017-07-15T02:11:56.830Z,0
2017-07-15T02:12:57.441Z,0
2017-07-15T02:13:58.095Z,0
2017-07-15T02:14:58.707Z,0
2017-07-15T02:15:59.322Z,0
2017-07-15T02:16:59.992Z,0
2017-07-15T02:18:00.601Z,0
2017-07-15T02:19:01.222Z,0
2017-07-15T02:20:01.834Z,0
2017-07-15T02:21:02.476Z,0
2017-07-15T02:22:03.127Z,0
2017-07-15T02:23:03.765Z,0
2017-07-15T02:24:04.455Z,0
2017-07-15T02:25:05.044Z,0
2017-07-15T02:26:05.659Z,0
2017-07-15T02:27:06.325Z,0
2017-07-15T02:28:06.965Z,0
2017-07-15T02:29:07.569Z,0
2017-07-15T02:30:08.206Z,0
2017-07-15T02:31:08.808Z,0
2017-07-15T02:32:09.473Z,0
2017-07-15T02:33:10.088Z,0
2017-07-15T02:34:10.710Z,0
2017-07-15T02:35:11.321Z,0
2017-07-15T02:36:11.935Z,0
2017-07-15T02:37:12.602Z,0
2017-07-15T02:38:13.222Z,0
2017-07-15T02:39:13.871Z,0
2017-07-15T02:40:14.487Z,0
2017-07-15T02:41:15.137Z,0
2017-07-15T02:42:15.807Z,0
2017-07-15T02:43:16.418Z,0
2017-07-15T02:44:17.033Z,0
2017-07-15T02:45:17.649Z,0
2017-07-15T02:46:18.265Z,0
2017-07-15T02:47:18.930Z,0
2017-07-15T02:48:19.576Z,0
2017-07-15T02:49:20.192Z,0
2017-07-15T02:50:20.806Z,0
2017-07-15T02:51:21.452Z,0
2017-07-15T02:52:22.155Z,0
2017-07-15T02:53:22.767Z,0
2017-07-15T02:54:23.382Z,0
2017-07-15T02:55:23.997Z,0
2017-07-15T02:56:24.612Z,0
2017-07-15T02:57:25.309Z,0
2017-07-15T02:58:25.935Z,0
2017-07-15T02:59:26.567Z,0
2017-07-15T03:00:27.240Z,0
2017-07-15T03:01:27.840Z,0
2017-07-15T03:02:28.504Z,0
2017-07-15T03:03:29.120Z,0
2017-07-15T03:04:29.739Z,0
2017-07-15T03:05:30.353Z,0
2017-07-15T03:06:30.968Z,0
2017-07-15T03:07:31.634Z,0
2017-07-15T03:08:32.248Z,0
2017-07-15T03:09:32.862Z,0
2017-07-15T03:10:33.478Z,0
2017-07-15T03:11:34.092Z,0
2017-07-15T03:12:34.756Z,0
2017-07-15T03:13:35.403Z,0
2017-07-15T03:14:36.000Z,0
2017-07-15T03:15:36.614Z,0
2017-07-15T03:16:37.232Z,0
2017-07-15T03:17:37.898Z,0
2017-07-15T03:18:38.520Z,0
2017-07-15T03:19:39.125Z,0
2017-07-15T03:20:39.740Z,0
2017-07-15T03:21:40.358Z,0
2017-07-15T03:22:41.028Z,0
2017-07-15T03:23:41.645Z,0
2017-07-15T03:24:42.291Z,0
2017-07-15T03:25:42.905Z,0
2017-07-15T03:26:43.523Z,0
2017-07-15T03:27:44.191Z,0
2017-07-15T03:28:44.835Z,0
2017-07-15T03:29:45.502Z,0
2017-07-15T03:30:46.104Z,0
2017-07-15T03:31:46.717Z,0
2017-07-15T03:32:47.379Z,0
2017-07-15T03:33:47.994Z,0
2017-07-15T03:34:48.608Z,0
2017-07-15T03:35:49.221Z,0
2017-07-15T03:36:49.838Z,0
2017-07-15T03:37:50.530Z,4
2017-07-15T03:38:51.199Z,0
2017-07-15T03:39:51.799Z,4
2017-07-15T03:40:52.415Z,0
2017-07-15T03:41:53.032Z,4
2017-07-15T03:42:53.700Z,0
2017-07-15T03:43:54.314Z,0
2017-07-15T03:44:54.931Z,4
2017-07-15T03:45:55.542Z,0
2017-07-15T03:46:56.184Z,0
2017-07-15T03:47:56.835Z,4
2017-07-15T03:48:57.481Z,4
2017-07-15T03:49:58.095Z,4
2017-07-15T03:50:58.714Z,4
2017-07-15T03:51:59.326Z,4
2017-07-15T03:52:59.992Z,4
2017-07-15T03:54:00.603Z,4
2017-07-15T03:55:01.222Z,4
2017-07-15T03:56:01.832Z,4
2017-07-15T03:57:02.452Z,8
2017-07-15T03:58:03.310Z,8
2017-07-15T03:59:03.949Z,8
2017-07-15T04:00:04.552Z,8
2017-07-15T04:01:05.162Z,8
2017-07-15T04:02:05.807Z,8
2017-07-15T04:03:06.471Z,12
2017-07-15T04:04:07.117Z,12
2017-07-15T04:05:07.737Z,12
2017-07-15T04:06:08.350Z,12
2017-07-15T04:07:08.965Z,12
2017-07-15T04:08:09.629Z,16
2017-07-15T04:09:10.268Z,12
2017-07-15T04:10:10.869Z,12
2017-07-15T04:11:11.482Z,12
2017-07-15T04:12:12.098Z,12
2017-07-15T04:13:12.795Z,16
2017-07-15T04:14:13.409Z,16
2017-07-15T04:15:14.049Z,16
2017-07-15T04:16:14.651Z,16
2017-07-15T04:17:15.291Z,20
2017-07-15T04:18:15.993Z,20
2017-07-15T04:19:16.646Z,20
2017-07-15T04:20:17.258Z,20
2017-07-15T04:21:17.899Z,20
2017-07-15T04:22:18.501Z,20
2017-07-15T04:23:19.164Z,20
2017-07-15T04:24:19.810Z,24
2017-07-15T04:25:20.426Z,24
2017-07-15T04:26:21.043Z,24
2017-07-15T04:27:21.687Z,20
2017-07-15T04:28:22.351Z,24
2017-07-15T04:29:22.967Z,24
2017-07-15T04:30:23.614Z,24
2017-07-15T04:31:24.229Z,24
2017-07-15T04:32:24.842Z,24
2017-07-15T04:33:25.507Z,24
2017-07-15T04:34:26.119Z,28
2017-07-15T04:35:26.737Z,28
2017-07-15T04:36:27.352Z,28
2017-07-15T04:37:27.965Z,28
2017-07-15T04:38:28.631Z,28
2017-07-15T04:39:29.278Z,28
2017-07-15T04:40:29.896Z,28
2017-07-15T04:41:30.551Z,32
2017-07-15T04:42:31.163Z,32
2017-07-15T04:43:31.861Z,32
2017-07-15T04:44:32.476Z,28
2017-07-15T04:45:33.089Z,32
2017-07-15T04:46:33.704Z,32
2017-07-15T04:47:34.317Z,32
2017-07-15T04:48:34.986Z,32
2017-07-15T04:49:35.601Z,36
2017-07-15T04:50:36.211Z,36
2017-07-15T04:51:36.825Z,36
2017-07-15T04:52:37.439Z,40
2017-07-15T04:53:38.126Z,40
2017-07-15T04:54:38.728Z,36
2017-07-15T04:55:39.375Z,40
2017-07-15T04:56:39.974Z,40
2017-07-15T04:57:40.587Z,40
2017-07-15T04:58:41.252Z,40
2017-07-15T04:59:41.892Z,40
2017-07-15T05:00:42.543Z,44
2017-07-15T05:01:43.141Z,40
2017-07-15T05:02:43.780Z,40
2017-07-15T05:03:44.431Z,44
2017-07-15T05:04:45.046Z,44
2017-07-15T05:05:45.660Z,40
2017-07-15T05:06:46.273Z,44
2017-07-15T05:07:46.889Z,44
2017-07-15T05:08:47.553Z,44
2017-07-15T05:09:48.207Z,40
2017-07-15T05:10:48.819Z,44
2017-07-15T05:11:49.468Z,44
2017-07-15T05:12:50.083Z,44
2017-07-15T05:13:50.750Z,44
2017-07-15T05:14:51.404Z,44
2017-07-15T05:15:52.020Z,44
2017-07-15T05:16:52.635Z,44
2017-07-15T05:17:53.249Z,48
2017-07-15T05:18:53.920Z,48
2017-07-15T05:19:54.530Z,48
2017-07-15T05:20:55.145Z,48
2017-07-15T05:21:55.764Z,48
2017-07-15T05:22:56.373Z,44
2017-07-15T05:23:57.039Z,48
2017-07-15T05:24:57.658Z,48
2017-07-15T05:25:58.267Z,48
2017-07-15T05:26:58.883Z,48
2017-07-15T05:27:59.496Z,52
2017-07-15T05:29:00.162Z,48
2017-07-15T05:30:00.776Z,48
2017-07-15T05:31:01.448Z,52
2017-07-15T05:32:02.083Z,48
2017-07-15T05:33:02.729Z,52
2017-07-15T05:34:03.398Z,52
2017-07-15T05:35:04.009Z,56
2017-07-15T05:36:04.623Z,52
2017-07-15T05:37:05.237Z,52
2017-07-15T05:38:05.850Z,56
2017-07-15T05:39:06.514Z,56
2017-07-15T05:40:07.128Z,56
2017-07-15T05:41:07.748Z,52
2017-07-15T05:42:08.360Z,52
2017-07-15T05:43:08.974Z,56
2017-07-15T05:44:09.638Z,56
2017-07-15T05:45:10.263Z,56
2017-07-15T05:46:10.872Z,60
2017-07-15T05:47:11.485Z,64
2017-07-15T05:48:12.098Z,60
2017-07-15T05:49:12.997Z,60
2017-07-15T05:50:13.646Z,64
2017-07-15T05:51:14.265Z,68
2017-07-15T05:52:14.876Z,68
2017-07-15T05:53:15.494Z,68
2017-07-15T05:54:16.108Z,68
2017-07-15T05:55:16.723Z,64
2017-07-15T05:56:17.341Z,72
2017-07-15T05:57:17.988Z,68
2017-07-15T05:58:18.591Z,72
2017-07-15T05:59:19.252Z,72
2017-07-15T06:00:19.867Z,72
2017-07-15T06:01:20.484Z,72
2017-07-15T06:02:21.099Z,76
2017-07-15T06:03:21.737Z,72
2017-07-15T06:04:22.417Z,76
2017-07-15T06:05:23.020Z,76
2017-07-15T06:06:23.636Z,80
2017-07-15T06:07:24.257Z,76
2017-07-15T06:08:24.873Z,76
2017-07-15T06:09:25.537Z,72
2017-07-15T06:10:26.190Z,72
2017-07-15T06:11:26.838Z,68
2017-07-15T06:12:27.455Z,80
2017-07-15T06:13:28.074Z,80
2017-07-15T06:14:28.747Z,80
2017-07-15T06:15:29.362Z,80
2017-07-15T06:16:29.978Z,72
2017-07-15T06:17:30.601Z,68
2017-07-15T06:18:31.215Z,80
2017-07-15T06:19:32.116Z,80
2017-07-15T06:20:32.736Z,84
2017-07-15T06:21:33.347Z,84
2017-07-15T06:22:33.963Z,80
2017-07-15T06:23:34.617Z,80
2017-07-15T06:24:35.281Z,80
2017-07-15T06:25:35.897Z,84
2017-07-15T06:26:36.514Z,88
2017-07-15T06:27:37.135Z,88
2017-07-15T06:28:37.750Z,88
2017-07-15T06:29:38.418Z,84
2017-07-15T06:30:39.035Z,88
2017-07-15T06:31:39.651Z,88
2017-07-15T06:32:40.266Z,88
2017-07-15T06:33:40.883Z,88
2017-07-15T06:34:41.553Z,88
2017-07-15T06:35:42.169Z,88
2017-07-15T06:36:42.785Z,88
2017-07-15T06:37:43.435Z,88
2017-07-15T06:38:44.053Z,88
2017-07-15T06:39:44.719Z,88
2017-07-15T06:40:45.336Z,92
2017-07-15T06:41:45.952Z,92
2017-07-15T06:42:46.570Z,88
2017-07-15T06:43:47.219Z,88
2017-07-15T06:44:47.868Z,92
2017-07-15T06:45:48.486Z,92
2017-07-15T06:46:49.102Z,92
2017-07-15T06:47:49.718Z,92
2017-07-15T06:48:50.333Z,96
2017-07-15T06:49:51.026Z,92
2017-07-15T06:50:51.630Z,92
2017-07-15T06:51:52.246Z,96
2017-07-15T06:52:52.864Z,92
2017-07-15T06:53:53.480Z,92
2017-07-15T06:54:54.147Z,92
2017-07-15T06:55:54.788Z,96
2017-07-15T06:56:55.392Z,96
2017-07-15T06:57:56.010Z,92
2017-07-15T06:58:56.625Z,92
2017-07-15T06:59:57.291Z,96
2017-07-15T07:00:57.906Z,96
2017-07-15T07:01:58.524Z,96
2017-07-15T07:02:59.147Z,104
2017-07-15T07:03:59.803Z,100
2017-07-15T07:05:00.475Z,100
2017-07-15T07:06:01.093Z,100
2017-07-15T07:07:01.711Z,100
2017-07-15T07:08:02.329Z,100
2017-07-15T07:09:02.952Z,104
2017-07-15T07:10:03.617Z,104
2017-07-15T07:11:04.236Z,108
2017-07-15T07:12:04.855Z,108
2017-07-15T07:13:05.472Z,108
2017-07-15T07:14:06.090Z,108
2017-07-15T07:15:06.759Z,112
2017-07-15T07:16:07.405Z,108
2017-07-15T07:17:08.008Z,108
2017-07-15T07:18:08.627Z,108
2017-07-15T07:19:09.246Z,108
2017-07-15T07:20:09.940Z,112
2017-07-15T07:21:10.546Z,112
2017-07-15T07:22:11.190Z,112
2017-07-15T07:23:11.825Z,112
2017-07-15T07:24:12.428Z,116
2017-07-15T07:25:13.096Z,112
2017-07-15T07:26:13.748Z,112
2017-07-15T07:27:14.366Z,112
2017-07-15T07:28:15.015Z,116
2017-07-15T07:29:15.636Z,116
2017-07-15T07:30:16.310Z,116
2017-07-15T07:31:16.924Z,116
2017-07-15T07:32:17.542Z,120
2017-07-15T07:33:18.162Z,116
2017-07-15T07:34:18.782Z,120
2017-07-15T07:35:19.451Z,120
2017-07-15T07:36:20.074Z,116
2017-07-15T07:37:20.714Z,124
2017-07-15T07:38:21.319Z,120
2017-07-15T07:39:21.942Z,124
2017-07-15T07:40:22.614Z,124
2017-07-15T07:41:23.230Z,124
2017-07-15T07:42:23.847Z,124
2017-07-15T07:43:24.465Z,124
2017-07-15T07:44:25.084Z,124
2017-07-15T07:45:25.751Z,128
2017-07-15T07:46:26.370Z,124
2017-07-15T07:47:27.025Z,128
2017-07-15T07:48:27.647Z,132
2017-07-15T07:49:28.285Z,132
2017-07-15T07:50:28.936Z,132
2017-07-15T07:51:29.555Z,136
2017-07-15T07:52:30.175Z,132
2017-07-15T07:53:30.794Z,136
2017-07-15T07:54:31.439Z,136
2017-07-15T07:55:32.098Z,136
2017-07-15T07:56:32.715Z,140
2017-07-15T07:57:33.334Z,140
2017-07-15T07:58:33.952Z,140
2017-07-15T07:59:34.571Z,144
2017-07-15T08:00:35.238Z,140
2017-07-15T08:01:35.858Z,144
2017-07-15T08:02:36.484Z,144
2017-07-15T08:03:37.096Z,148
2017-07-15T08:04:37.715Z,148
2017-07-15T08:05:38.584Z,148
2017-07-15T08:06:39.204Z,152
2017-07-15T08:07:39.822Z,152
2017-07-15T08:08:40.478Z,152
2017-07-15T08:09:41.099Z,156
2017-07-15T08:10:41.967Z,156
2017-07-15T08:11:42.587Z,156
2017-07-15T08:12:43.205Z,156
2017-07-15T08:13:43.829Z,160
2017-07-15T08:14:44.443Z,160
2017-07-15T08:15:45.146Z,164
2017-07-15T08:16:45.748Z,168
2017-07-15T08:17:46.371Z,168
2017-07-15T08:18:47.023Z,168
2017-07-15T08:19:47.641Z,168
2017-07-15T08:20:48.310Z,176
2017-07-15T08:21:48.929Z,172
2017-07-15T08:22:49.576Z,176
2017-07-15T08:23:50.181Z,176
2017-07-15T08:24:50.803Z,180
2017-07-15T08:25:51.724Z,180
2017-07-15T08:26:52.374Z,184
2017-07-15T08:27:52.994Z,184
2017-07-15T08:28:53.609Z,184
2017-07-15T08:29:54.231Z,188
2017-07-15T08:30:54.903Z,188
2017-07-15T08:31:55.521Z,192
2017-07-15T08:32:56.173Z,192
2017-07-15T08:33:56.826Z,192
2017-07-15T08:34:57.406Z,196
2017-07-15T08:35:58.077Z,196
2017-07-15T08:36:58.695Z,204
2017-07-15T08:37:59.347Z,200
2017-07-15T08:38:59.978Z,204
2017-07-15T08:40:00.614Z,208
2017-07-15T08:41:01.296Z,208
2017-07-15T08:42:01.900Z,212
2017-07-15T08:43:02.518Z,212
2017-07-15T08:44:03.139Z,216
2017-07-15T08:45:03.758Z,216
2017-07-15T08:46:04.459Z,220
2017-07-15T08:47:05.086Z,220
2017-07-15T08:48:05.693Z,220
2017-07-15T08:49:06.317Z,224
2017-07-15T08:50:06.936Z,224
2017-07-15T08:51:07.608Z,228
2017-07-15T08:52:08.229Z,228
2017-07-15T08:53:08.853Z,232
2017-07-15T08:54:09.468Z,240
2017-07-15T08:55:10.086Z,240
2017-07-15T08:56:10.762Z,244
2017-07-15T08:57:11.381Z,244
2017-07-15T08:58:12.000Z,244
2017-07-15T08:59:12.653Z,248
2017-07-15T09:00:13.273Z,252
2017-07-15T09:01:13.994Z,252
2017-07-15T09:02:14.650Z,256
2017-07-15T09:03:15.275Z,260
2017-07-15T09:04:15.895Z,260
2017-07-15T09:05:16.514Z,264
2017-07-15T09:06:17.212Z,264
2017-07-15T09:07:17.832Z,268
2017-07-15T09:08:18.485Z,272
2017-07-15T09:09:19.089Z,276
2017-07-15T09:10:19.735Z,280
2017-07-15T09:11:20.371Z,280
2017-07-15T09:12:21.024Z,284
2017-07-15T09:13:21.641Z,288
2017-07-15T09:14:22.261Z,292
2017-07-15T09:15:22.879Z,292
2017-07-15T09:16:23.549Z,296
2017-07-15T09:17:24.202Z,300
2017-07-15T09:18:24.822Z,304
2017-07-15T09:19:25.441Z,304
2017-07-15T09:20:26.088Z,304
2017-07-15T09:21:26.771Z,312
2017-07-15T09:22:27.378Z,312
2017-07-15T09:23:28.035Z,316
2017-07-15T09:24:28.687Z,324
2017-07-15T09:25:29.307Z,328
2017-07-15T09:26:30.016Z,332
2017-07-15T09:27:30.642Z,336
2017-07-15T09:28:31.262Z,336
2017-07-15T09:29:31.885Z,344
2017-07-15T09:30:32.510Z,344
2017-07-15T09:31:33.174Z,352
2017-07-15T09:32:33.818Z,356
2017-07-15T09:33:34.429Z,356
2017-07-15T09:34:35.082Z,364
2017-07-15T09:35:35.702Z,368
2017-07-15T09:36:36.371Z,368
2017-07-15T09:37:36.999Z,376
2017-07-15T09:38:37.615Z,380
2017-07-15T09:39:38.237Z,384
2017-07-15T09:40:38.855Z,388
2017-07-15T09:41:39.537Z,392
2017-07-15T09:42:40.152Z,396
2017-07-15T09:43:40.800Z,404
2017-07-15T09:44:41.407Z,408
2017-07-15T09:45:42.026Z,412
2017-07-15T09:46:42.695Z,416
2017-07-15T09:47:43.343Z,420
2017-07-15T09:48:43.952Z,428
2017-07-15T09:49:44.569Z,432
2017-07-15T09:50:45.215Z,436
2017-07-15T09:51:45.903Z,440
2017-07-15T09:52:46.558Z,444
2017-07-15T09:53:47.180Z,448
2017-07-15T09:54:47.802Z,456
2017-07-15T09:55:48.422Z,464
2017-07-15T09:56:49.092Z,468
2017-07-15T09:57:49.716Z,472
2017-07-15T09:58:50.338Z,476
2017-07-15T09:59:50.962Z,484
2017-07-15T10:00:51.622Z,488
2017-07-15T10:01:52.298Z,492
2017-07-15T10:02:52.920Z,500
2017-07-15T10:03:53.538Z,500
2017-07-15T10:04:54.159Z,504
2017-07-15T10:05:54.779Z,508
2017-07-15T10:06:55.652Z,512
2017-07-15T10:07:56.312Z,520
2017-07-15T10:08:56.930Z,528
2017-07-15T10:09:57.590Z,532
2017-07-15T10:10:58.208Z,540
2017-07-15T10:11:59.131Z,548
2017-07-15T10:12:59.753Z,560
2017-07-15T10:14:00.373Z,588
2017-07-15T10:15:00.993Z,640
2017-07-15T10:16:01.619Z,692
2017-07-15T10:17:02.287Z,696
2017-07-15T10:18:02.907Z,708
2017-07-15T10:19:03.556Z,740
2017-07-15T10:20:04.164Z,676
2017-07-15T10:21:04.810Z,756
2017-07-15T10:22:05.473Z,732
2017-07-15T10:23:06.114Z,720
2017-07-15T10:24:06.723Z,728
2017-07-15T10:25:07.345Z,748
2017-07-15T10:26:07.998Z,732
2017-07-15T10:27:08.720Z,732
2017-07-15T10:28:09.342Z,696
2017-07-15T10:29:09.963Z,680
2017-07-15T10:30:10.585Z,652
2017-07-15T10:31:11.213Z,736
2017-07-15T10:32:11.881Z,752
2017-07-15T10:33:12.503Z,748
2017-07-15T10:34:13.161Z,764
2017-07-15T10:35:13.761Z,780
2017-07-15T10:36:14.383Z,776
2017-07-15T10:37:15.058Z,728
2017-07-15T10:38:15.678Z,788
2017-07-15T10:39:16.301Z,812
2017-07-15T10:40:16.922Z,784
2017-07-15T10:41:17.544Z,848
2017-07-15T10:42:18.214Z,736
2017-07-15T10:43:18.839Z,608
2017-07-15T10:44:19.458Z,540
2017-07-15T10:45:20.087Z,624
2017-07-15T10:46:20.703Z,512
2017-07-15T10:47:21.376Z,712
2017-07-15T10:48:21.997Z,780
2017-07-15T10:49:22.621Z,884
2017-07-15T10:50:23.276Z,888
2017-07-15T10:51:23.912Z,816
2017-07-15T10:52:24.569Z,848
2017-07-15T10:53:25.192Z,880
2017-07-15T10:54:25.817Z,868
2017-07-15T10:55:26.440Z,880
2017-07-15T10:56:27.062Z,868
2017-07-15T10:57:27.767Z,860
2017-07-15T10:58:28.391Z,856
2017-07-15T10:59:29.013Z,872
2017-07-15T11:00:29.667Z,876
2017-07-15T11:01:30.289Z,852
2017-07-15T11:02:30.967Z,852
2017-07-15T11:03:31.589Z,860
2017-07-15T11:04:32.214Z,880
2017-07-15T11:05:32.834Z,892
2017-07-15T11:06:33.458Z,868
2017-07-15T11:07:34.131Z,808
2017-07-15T11:08:34.755Z,852
2017-07-15T11:09:35.378Z,748
2017-07-15T11:10:36.005Z,796
2017-07-15T11:11:36.624Z,760
2017-07-15T11:12:37.298Z,660
2017-07-15T11:13:37.955Z,672
2017-07-15T11:14:38.579Z,608
2017-07-15T11:15:39.202Z,736
2017-07-15T11:16:39.822Z,768
2017-07-15T11:17:40.523Z,808
2017-07-15T11:18:41.132Z,1032
2017-07-15T11:19:41.754Z,944
2017-07-15T11:20:42.379Z,792
2017-07-15T11:21:43.001Z,600
2017-07-15T11:22:43.704Z,720
2017-07-15T11:23:44.313Z,972
2017-07-15T11:24:44.936Z,992
2017-07-15T11:25:45.556Z,864
2017-07-15T11:26:46.206Z,920
2017-07-15T11:27:46.865Z,772
2017-07-15T11:28:47.497Z,620
2017-07-15T11:29:48.153Z,640
2017-07-15T11:30:48.807Z,876
2017-07-15T11:31:49.434Z,956
2017-07-15T11:32:50.362Z,976
2017-07-15T11:33:50.995Z,872
2017-07-15T11:34:51.609Z,904
2017-07-15T11:35:52.237Z,912
2017-07-15T11:36:52.864Z,868
2017-07-15T11:37:53.532Z,816
2017-07-15T11:38:54.155Z,912
2017-07-15T11:39:54.816Z,956
2017-07-15T11:40:55.436Z,884
2017-07-15T11:41:56.059Z,912
2017-07-15T11:42:56.735Z,896
2017-07-15T11:43:57.357Z,964
2017-07-15T11:44:57.980Z,780
2017-07-15T11:45:58.603Z,596
2017-07-15T11:46:59.225Z,724
2017-07-15T11:47:59.927Z,872
2017-07-15T11:49:00.559Z,924
2017-07-15T11:50:01.195Z,984
2017-07-15T11:51:01.832Z,924
2017-07-15T11:52:02.442Z,924
2017-07-15T11:53:03.191Z,900
2017-07-15T11:54:03.805Z,896
2017-07-15T11:55:04.425Z,916
2017-07-15T11:56:05.048Z,940
2017-07-15T11:57:05.703Z,936
2017-07-15T11:58:06.358Z,712
2017-07-15T11:59:07.015Z,1064
2017-07-15T12:00:07.640Z,1012
2017-07-15T12:01:08.263Z,1020
2017-07-15T12:02:08.885Z,944
2017-07-15T12:03:09.590Z,948
2017-07-15T12:04:10.214Z,908
2017-07-15T12:05:10.877Z,892
2017-07-15T12:06:11.496Z,740
2017-07-15T12:07:12.118Z,628
2017-07-15T12:08:12.795Z,556
2017-07-15T12:09:13.416Z,728
2017-07-15T12:10:14.040Z,668
2017-07-15T12:11:14.663Z,512
2017-07-15T12:12:15.320Z,1028
2017-07-15T12:13:15.995Z,1032
2017-07-15T12:14:16.620Z,1036
2017-07-15T12:15:17.276Z,1024
2017-07-15T12:16:17.901Z,1024
2017-07-15T12:17:18.525Z,1024
2017-07-15T12:18:19.205Z,1036
2017-07-15T12:19:19.824Z,844
2017-07-15T12:20:20.448Z,700
2017-07-15T12:21:21.076Z,852
2017-07-15T12:22:21.697Z,976
2017-07-15T12:23:22.369Z,960
2017-07-15T12:24:22.997Z,1004
2017-07-15T12:25:23.617Z,1052
2017-07-15T12:26:24.242Z,1044
2017-07-15T12:27:24.867Z,1060
2017-07-15T12:28:25.541Z,1060
2017-07-15T12:29:26.197Z,1040
2017-07-15T12:30:26.847Z,1024
2017-07-15T12:31:27.460Z,1008
2017-07-15T12:32:28.089Z,820
2017-07-15T12:33:28.759Z,1088
2017-07-15T12:34:29.384Z,1016
2017-07-15T12:35:30.007Z,1036
2017-07-15T12:36:30.632Z,1016
2017-07-15T12:37:31.255Z,972
2017-07-15T12:38:31.956Z,1008
2017-07-15T12:39:32.566Z,768
2017-07-15T12:40:33.190Z,892
2017-07-15T12:41:33.816Z,916
2017-07-15T12:42:34.445Z,1088
2017-07-15T12:43:35.118Z,936
2017-07-15T12:44:35.775Z,1132
2017-07-15T12:45:36.397Z,1112
2017-07-15T12:46:37.030Z,1172
2017-07-15T12:47:37.656Z,1204
2017-07-15T12:48:38.333Z,1188
2017-07-15T12:49:38.956Z,1188
2017-07-15T12:50:39.584Z,1188
2017-07-15T12:51:40.244Z,1024
2017-07-15T12:52:40.865Z,724
2017-07-15T12:53:41.573Z,552
2017-07-15T12:54:42.202Z,672
2017-07-15T12:55:42.824Z,720
2017-07-15T12:56:43.448Z,768
2017-07-15T12:57:44.078Z,896
2017-07-15T12:58:44.758Z,1152
2017-07-15T12:59:45.415Z,964
2017-07-15T13:00:46.046Z,1012
2017-07-15T13:01:46.673Z,1404
2017-07-15T13:02:47.293Z,852
2017-07-15T13:03:47.968Z,996
2017-07-15T13:04:48.593Z,788
2017-07-15T13:05:49.216Z,744
2017-07-15T13:06:49.841Z,832
2017-07-15T13:07:50.467Z,764
2017-07-15T13:08:51.175Z,792
2017-07-15T13:09:51.798Z,768
2017-07-15T13:10:52.426Z,692
2017-07-15T13:11:53.049Z,712
2017-07-15T13:12:53.672Z,744
2017-07-15T13:13:54.346Z,952
2017-07-15T13:14:54.972Z,788
2017-07-15T13:15:55.595Z,696
2017-07-15T13:16:56.219Z,820
2017-07-15T13:17:56.842Z,708
2017-07-15T13:18:57.517Z,580
2017-07-15T13:19:58.168Z,548
2017-07-15T13:20:58.777Z,512
2017-07-15T13:21:59.434Z,504
2017-07-15T13:23:00.060Z,508
2017-07-15T13:24:00.734Z,500
2017-07-15T13:25:01.360Z,544
2017-07-15T13:26:01.982Z,504
2017-07-15T13:27:02.614Z,500
2017-07-15T13:28:03.263Z,492
2017-07-15T13:29:03.906Z,460
2017-07-15T13:30:04.536Z,448
2017-07-15T13:31:05.157Z,444
2017-07-15T13:32:05.804Z,448
2017-07-15T13:33:06.421Z,444
2017-07-15T13:34:07.093Z,444
2017-07-15T13:35:07.718Z,460
2017-07-15T13:36:08.346Z,480
2017-07-15T13:37:08.968Z,524
2017-07-15T13:38:09.596Z,836
2017-07-15T13:39:10.267Z,644
2017-07-15T13:40:10.897Z,620
2017-07-15T13:41:11.517Z,696
2017-07-15T13:42:12.142Z,704
2017-07-15T13:43:12.767Z,712
2017-07-15T13:44:13.472Z,648
2017-07-15T13:45:14.088Z,648
2017-07-15T13:46:14.703Z,520
2017-07-15T13:47:15.326Z,460
2017-07-15T13:48:15.981Z,428
2017-07-15T13:49:16.666Z,400
2017-07-15T13:50:17.274Z,408
2017-07-15T13:51:17.923Z,412
2017-07-15T13:52:18.567Z,404
2017-07-15T13:53:19.198Z,400
2017-07-15T13:54:19.886Z,412
2017-07-15T13:55:20.495Z,388
2017-07-15T13:56:21.119Z,348
2017-07-15T13:57:21.742Z,316
2017-07-15T13:58:22.402Z,284
2017-07-15T13:59:23.074Z,272
2017-07-15T14:00:23.695Z,272
2017-07-15T14:01:24.319Z,264
2017-07-15T14:02:24.949Z,252
2017-07-15T14:03:25.573Z,236
2017-07-15T14:04:26.245Z,232
2017-07-15T14:05:26.869Z,220
2017-07-15T14:06:27.495Z,220
2017-07-15T14:07:28.116Z,224
2017-07-15T14:08:28.776Z,224
2017-07-15T14:09:29.448Z,224
2017-07-15T14:10:30.095Z,212
2017-07-15T14:11:30.750Z,212
2017-07-15T14:12:31.372Z,220
2017-07-15T14:13:32.020Z,224
2017-07-15T14:14:32.680Z,228
2017-07-15T14:15:33.303Z,228
2017-07-15T14:16:33.953Z,232